Time;durP1;ratioP1;P1;durP2;ratioP2;P2;SDS_P1;SDS_P2;PMS_P1;PMS_P2;Temp;Humidity;BMP_temperature;BMP_pressure;BME280_temperature;BME280_humidity;BME280_pressure;Samples;Min_cycle;Max_cycle;Signal;HPM_P1;HPM_P2
2022/04/24 00:01:35;;;;;;;6.35;6.05;;;;;;;9.87;100.00;100143.09;5053694;28;20021;-61
2022/04/24 00:04:01;;;;;;;6.00;5.80;;;;;;;9.96;100.00;100154.44;5053842;28;20035;-61
2022/04/24 00:06:26;;;;;;;5.80;5.60;;;;;;;9.96;100.00;100157.09;5053377;28;20029;-61
2022/04/24 00:08:52;;;;;;;5.80;5.60;;;;;;;10.00;100.00;100153.09;5052602;28;20021;-61
2022/04/24 00:11:18;;;;;;;5.78;5.57;;;;;;;9.89;100.00;100153.50;5046217;28;20025;-62
2022/04/24 00:13:43;;;;;;;6.30;6.00;;;;;;;9.97;100.00;100151.59;5048902;28;20033;-62
2022/04/24 00:16:10;;;;;;;5.95;5.75;;;;;;;9.93;100.00;100155.63;5052641;28;20472;-61
2022/04/24 00:18:38;;;;;;;6.20;5.90;;;;;;;9.92;100.00;100158.47;5053478;28;20051;-62
2022/04/24 00:21:05;;;;;;;6.15;5.88;;;;;;;9.96;100.00;100155.25;5053502;28;20021;-62
2022/04/24 00:23:31;;;;;;;5.60;5.40;;;;;;;10.05;100.00;100169.25;5053578;28;20033;-62
2022/04/24 00:25:57;;;;;;;6.32;6.03;;;;;;;9.91;100.00;100162.91;5053385;28;20096;-61
2022/04/24 00:28:23;;;;;;;5.75;5.55;;;;;;;9.97;100.00;100156.91;5053451;28;20124;-61
2022/04/24 00:30:48;;;;;;;6.40;6.10;;;;;;;9.94;100.00;100159.91;5052999;28;20499;-62
2022/04/24 00:33:14;;;;;;;6.35;6.05;;;;;;;10.01;100.00;100153.91;5056349;28;20032;-62
2022/04/24 00:35:40;;;;;;;6.00;5.80;;;;;;;10.07;100.00;100156.66;5053230;28;20071;-62
2022/04/24 00:38:05;;;;;;;6.45;6.15;;;;;;;10.09;100.00;100156.47;5053033;28;20033;-61
2022/04/24 00:40:31;;;;;;;5.90;5.70;;;;;;;10.03;100.00;100158.00;5048467;28;20151;-62
2022/04/24 00:42:56;;;;;;;6.43;6.13;;;;;;;10.07;100.00;100164.63;5052795;28;20083;-62
2022/04/24 00:45:22;;;;;;;5.70;5.50;;;;;;;10.04;100.00;100159.66;5053057;28;20436;-62
2022/04/24 00:47:47;;;;;;;6.22;5.93;;;;;;;10.06;100.00;100156.81;5056117;28;20103;-61
2022/04/24 00:50:13;;;;;;;5.63;5.43;;;;;;;10.10;100.00;100156.28;5047625;28;20033;-61
2022/04/24 00:52:39;;;;;;;5.80;5.60;;;;;;;10.13;100.00;100163.03;5048395;28;20107;-61
2022/04/24 00:55:06;;;;;;;6.45;6.15;;;;;;;10.09;100.00;100154.66;5051277;28;20102;-62
2022/04/24 00:57:31;;;;;;;6.30;6.00;;;;;;;10.11;100.00;100154.47;5052776;28;20136;-61
2022/04/24 00:59:57;;;;;;;6.00;5.80;;;;;;;10.01;100.00;100156.56;5052273;28;20107;-61
2022/04/24 01:02:23;;;;;;;5.90;5.68;;;;;;;9.95;100.00;100161.56;5052648;28;20384;-61
2022/04/24 01:04:48;;;;;;;5.97;5.78;;;;;;;10.02;100.00;100160.84;5052493;28;20055;-62
2022/04/24 01:07:14;;;;;;;5.85;5.65;;;;;;;10.10;100.00;100166.06;5047586;28;20028;-62
2022/04/24 01:09:40;;;;;;;5.80;5.60;;;;;;;9.95;100.00;100168.69;5052447;28;20103;-61
2022/04/24 01:12:06;;;;;;;5.90;5.70;;;;;;;10.02;100.00;100168.81;5052563;28;20039;-63
2022/04/24 01:14:33;;;;;;;5.78;5.57;;;;;;;10.04;100.00;100170.25;5052589;28;20047;-61
2022/04/24 01:17:00;;;;;;;6.10;5.80;;;;;;;10.07;100.00;100171.75;5051864;28;20032;-62
2022/04/24 01:19:26;;;;;;;6.00;5.78;;;;;;;10.15;100.00;100167.19;5051863;28;20523;-61
2022/04/24 01:21:53;;;;;;;6.00;5.78;;;;;;;10.19;100.00;100164.97;5043516;28;20035;-61
2022/04/24 01:24:23;;;;;;;5.90;5.68;;;;;;;10.10;100.00;100163.41;5051135;28;20025;-62
2022/04/24 01:26:50;;;;;;;5.95;5.72;;;;;;;10.10;100.00;100158.13;5052169;28;20021;-61
2022/04/24 01:29:16;;;;;;;5.72;5.53;;;;;;;10.12;100.00;100164.88;5051078;28;20512;-61
2022/04/24 01:31:45;;;;;;;5.80;5.60;;;;;;;10.26;100.00;100162.47;5051971;28;20379;-61
2022/04/24 01:34:12;;;;;;;5.85;5.65;;;;;;;10.17;100.00;100169.66;5058439;28;20480;-61
2022/04/24 01:36:38;;;;;;;5.80;5.60;;;;;;;10.17;100.00;100167.81;5045217;28;20021;-61
2022/04/24 01:39:04;;;;;;;5.80;5.60;;;;;;;10.18;100.00;100169.47;5051726;28;20013;-61
2022/04/24 01:41:31;;;;;;;5.90;5.70;;;;;;;10.27;100.00;100183.47;5048317;28;20025;-61
2022/04/24 01:43:57;;;;;;;5.60;5.40;;;;;;;10.27;100.00;100178.19;5052197;28;20100;-61
2022/04/24 01:46:23;;;;;;;6.03;5.78;;;;;;;10.30;100.00;100175.19;5051678;28;20031;-62
2022/04/24 01:48:48;;;;;;;6.00;5.75;;;;;;;10.23;100.00;100174.25;5043149;28;20041;-62
2022/04/24 01:51:14;;;;;;;5.80;5.60;;;;;;;10.24;100.00;100165.31;5049001;28;20395;-62
2022/04/24 01:53:41;;;;;;;5.80;5.60;;;;;;;10.31;100.00;100173.34;5052038;28;20023;-61
2022/04/24 01:56:07;;;;;;;5.70;5.50;;;;;;;10.21;100.00;100184.19;5051569;28;20491;-61
2022/04/24 01:58:34;;;;;;;6.32;6.03;;;;;;;10.12;100.00;100175.47;5051077;28;20048;-62
2022/04/24 02:01:00;;;;;;;6.05;5.82;;;;;;;10.15;100.00;100180.44;5051558;28;20032;-62
2022/04/24 02:03:27;;;;;;;5.72;5.53;;;;;;;10.20;100.00;100177.22;5049170;28;20440;-61
2022/04/24 02:05:53;;;;;;;6.30;6.00;;;;;;;10.21;100.00;100179.72;5051679;28;20086;-62
2022/04/24 02:08:19;;;;;;;6.00;5.80;;;;;;;10.16;100.00;100162.69;5051412;28;20464;-62
2022/04/24 02:10:44;;;;;;;6.18;5.88;;;;;;;10.24;100.00;100173.25;5051924;28;20028;-61
2022/04/24 02:13:10;;;;;;;5.97;5.78;;;;;;;10.19;100.00;100172.94;5051613;28;20058;-62
2022/04/24 02:15:36;;;;;;;6.30;6.00;;;;;;;10.19;100.00;100165.81;5050472;28;20036;-62
2022/04/24 02:18:02;;;;;;;5.95;5.75;;;;;;;10.15;100.00;100169.84;5042794;28;20025;-61
2022/04/24 02:20:31;;;;;;;5.80;5.60;;;;;;;10.10;100.00;100169.53;5051775;28;20023;-61
2022/04/24 02:22:58;;;;;;;5.97;5.78;;;;;;;10.06;100.00;100170.94;5051542;28;20112;-62
2022/04/24 02:25:25;;;;;;;5.97;5.78;;;;;;;9.96;100.00;100171.16;5051471;28;20025;-61
2022/04/24 02:27:53;;;;;;;6.15;5.88;;;;;;;9.86;100.00;100153.88;5051395;28;20065;-62
2022/04/24 02:30:21;;;;;;;6.00;5.80;;;;;;;9.90;100.00;100155.16;5054271;28;20033;-61
2022/04/24 02:32:46;;;;;;;6.25;5.95;;;;;;;9.94;100.00;100156.44;5051794;28;20025;-61
2022/04/24 02:35:12;;;;;;;5.90;5.70;;;;;;;9.89;100.00;100154.31;5059053;28;20028;-61
2022/04/24 02:37:38;;;;;;;5.85;5.65;;;;;;;9.85;100.00;100158.34;5055295;28;20099;-61
2022/04/24 02:40:09;;;;;;;5.95;5.75;;;;;;;9.79;100.00;100163.53;5055353;28;20112;-61
2022/04/24 02:42:36;;;;;;;6.30;6.00;;;;;;;9.79;100.00;100159.06;5055327;28;20032;-61
2022/04/24 02:45:05;;;;;;;5.72;5.53;;;;;;;9.78;100.00;100167.19;5049377;28;20091;-61
2022/04/24 02:47:31;;;;;;;5.97;5.78;;;;;;;9.69;100.00;100169.06;5053019;28;20113;-62
2022/04/24 02:49:57;;;;;;;6.10;5.80;;;;;;;9.64;100.00;100182.84;5046941;28;20111;-61
2022/04/24 02:52:22;;;;;;;5.72;5.53;;;;;;;9.77;100.00;100182.25;5055261;28;20017;-62
2022/04/24 02:54:47;;;;;;;5.90;5.70;;;;;;;9.82;100.00;100184.38;5055277;28;20033;-62
2022/04/24 02:57:13;;;;;;;5.97;5.75;;;;;;;9.78;100.00;100185.75;5054802;28;20072;-62
2022/04/24 02:59:42;;;;;;;5.72;5.53;;;;;;;9.77;100.00;100179.63;5044411;28;20069;-61
2022/04/24 03:02:09;;;;;;;5.90;5.70;;;;;;;9.86;100.00;100198.91;5053758;28;20033;-62
2022/04/24 03:04:34;;;;;;;5.95;5.75;;;;;;;9.90;100.00;100202.84;5054945;28;20016;-62
2022/04/24 03:07:00;;;;;;;5.90;5.70;;;;;;;9.90;100.00;100200.19;5054377;28;20081;-61
2022/04/24 03:09:26;;;;;;;5.45;5.25;;;;;;;9.92;100.00;100206.16;5055035;28;20035;-62
2022/04/24 03:11:51;;;;;;;5.80;5.60;;;;;;;9.97;100.00;100206.44;5054989;28;20400;-61
2022/04/24 03:14:17;;;;;;;5.90;5.70;;;;;;;9.88;100.00;100203.03;5046428;28;20028;-62
2022/04/24 03:16:42;;;;;;;6.07;5.80;;;;;;;9.96;100.00;100200.31;5055209;28;20044;-62
2022/04/24 03:19:08;;;;;;;6.00;5.80;;;;;;;9.94;100.00;100199.66;5053612;28;20024;-62
2022/04/24 03:21:34;;;;;;;5.80;5.60;;;;;;;9.96;100.00;100200.31;5055065;28;20384;-62
2022/04/24 03:24:00;;;;;;;6.00;5.80;;;;;;;9.98;100.00;100200.13;5053577;28;20032;-61
2022/04/24 03:26:26;;;;;;;5.68;5.47;;;;;;;10.05;100.00;100216.13;5054561;28;20063;-61
2022/04/24 03:28:51;;;;;;;5.95;5.75;;;;;;;10.03;100.00;100211.00;5046194;28;20074;-62
2022/04/24 03:31:17;;;;;;;5.53;5.32;;;;;;;10.14;100.00;100212.44;5054439;28;20073;-61
2022/04/24 03:33:43;;;;;;;5.90;5.70;;;;;;;10.06;100.00;100207.16;5055877;28;20154;-61
2022/04/24 03:36:09;;;;;;;5.80;5.60;;;;;;;10.08;100.00;100211.31;5054411;28;20037;-62
2022/04/24 03:38:34;;;;;;;6.05;5.82;;;;;;;10.11;100.00;100221.53;5054468;28;20103;-61
2022/04/24 03:41:00;;;;;;;5.88;5.68;;;;;;;10.17;100.00;100214.72;5048485;28;20558;-62
2022/04/24 03:43:25;;;;;;;6.25;5.95;;;;;;;10.25;100.00;100222.63;5049190;28;20217;-61
2022/04/24 03:45:51;;;;;;;5.90;5.70;;;;;;;10.23;100.00;100224.63;5054146;28;20028;-62
2022/04/24 03:48:16;;;;;;;5.97;5.78;;;;;;;10.13;100.00;100226.66;5050381;28;20029;-62
2022/04/24 03:50:42;;;;;;;5.90;5.70;;;;;;;10.15;100.00;100227.31;5054076;28;20374;-62
2022/04/24 03:53:07;;;;;;;5.80;5.60;;;;;;;10.12;100.00;100219.72;5054140;28;20028;-61
2022/04/24 03:55:33;;;;;;;5.50;5.30;;;;;;;10.15;100.00;100228.16;5046435;28;20021;-62
2022/04/24 03:57:58;;;;;;;5.82;5.63;;;;;;;10.23;100.00;100230.75;5047429;28;20041;-63
2022/04/24 04:00:24;;;;;;;5.85;5.65;;;;;;;10.37;100.00;100230.97;5054273;28;20028;-63
2022/04/24 04:02:50;;;;;;;5.90;5.70;;;;;;;10.34;100.00;100233.97;5053648;28;20029;-62
2022/04/24 04:05:16;;;;;;;5.75;5.55;;;;;;;10.45;100.00;100230.88;5053924;28;20052;-62
2022/04/24 04:07:42;;;;;;;5.97;5.78;;;;;;;10.52;100.00;100240.59;5054108;28;20103;-62
2022/04/24 04:10:08;;;;;;;6.28;5.97;;;;;;;10.52;100.00;100245.88;5046709;28;20516;-62
2022/04/24 04:12:34;;;;;;;6.13;5.82;;;;;;;10.52;100.00;100253.84;5049729;28;20025;-62
2022/04/24 04:15:04;;;;;;;6.03;5.82;;;;;;;10.62;100.00;100252.75;5052741;28;20032;-62
2022/04/24 04:17:29;;;;;;;5.93;5.72;;;;;;;10.88;100.00;100247.00;5053632;28;20174;-62
2022/04/24 04:19:55;;;;;;;5.90;5.70;;;;;;;11.04;100.00;100252.94;5053730;28;20048;-61
2022/04/24 04:22:20;;;;;;;6.47;6.18;;;;;;;11.03;100.00;100239.88;5053895;28;20040;-62
2022/04/24 04:24:46;;;;;;;6.40;6.10;;;;;;;11.07;100.00;100265.00;5047903;28;20032;-62
2022/04/24 04:27:11;;;;;;;5.78;5.57;;;;;;;10.98;100.00;100268.78;5050123;28;20018;-62
2022/04/24 04:29:37;;;;;;;5.80;5.60;;;;;;;10.99;100.00;100267.78;5043155;28;20021;-60
2022/04/24 04:32:03;;;;;;;6.00;5.80;;;;;;;11.01;100.00;100263.09;5052731;28;20040;-62
2022/04/24 04:34:29;;;;;;;5.85;5.65;;;;;;;11.13;100.00;100277.56;5054021;28;20388;-62
2022/04/24 04:36:54;;;;;;;5.95;5.75;;;;;;;11.23;100.00;100278.09;5052486;28;20036;-61
2022/04/24 04:39:20;;;;;;;5.97;5.78;;;;;;;11.22;100.00;100268.47;5051051;28;20019;-62
2022/04/24 04:41:46;;;;;;;5.90;5.70;;;;;;;11.28;100.00;100277.53;5053245;28;20439;-61
2022/04/24 04:44:11;;;;;;;6.30;6.00;;;;;;;11.58;100.00;100281.78;5053307;28;20025;-61
2022/04/24 04:46:38;;;;;;;6.25;5.95;;;;;;;11.68;100.00;100286.81;5052587;28;20503;-62
2022/04/24 04:49:03;;;;;;;6.35;6.05;;;;;;;11.57;100.00;100292.59;5039858;28;20029;-61
2022/04/24 04:51:29;;;;;;;6.05;5.85;;;;;;;11.54;100.00;100306.28;5045559;28;20369;-61
2022/04/24 04:53:55;;;;;;;5.75;5.55;;;;;;;11.86;100.00;100305.03;5044843;28;20043;-61
2022/04/24 04:56:22;;;;;;;6.10;5.90;;;;;;;11.83;100.00;100298.25;5052664;28;20098;-61
2022/04/24 04:58:47;;;;;;;6.30;6.00;;;;;;;11.84;100.00;100307.06;5053105;28;20066;-61
2022/04/24 05:01:13;;;;;;;6.10;5.90;;;;;;;12.14;100.00;100310.41;5053110;28;20021;-61
2022/04/24 05:03:39;;;;;;;6.30;6.00;;;;;;;12.20;100.00;100312.31;5052549;28;20477;-61
2022/04/24 05:06:04;;;;;;;6.30;6.00;;;;;;;11.96;100.00;100313.50;5042948;28;20096;-61
2022/04/24 05:08:30;;;;;;;5.93;5.72;;;;;;;11.83;100.00;100311.53;5052671;28;20369;-62
2022/04/24 05:10:56;;;;;;;6.00;5.80;;;;;;;11.94;100.00;100309.41;5052583;28;20071;-62
2022/04/24 05:13:21;;;;;;;6.40;6.10;;;;;;;11.72;100.00;100313.81;5052763;28;20082;-62
2022/04/24 05:15:47;;;;;;;6.25;5.97;;;;;;;11.74;100.00;100309.97;5052819;28;20071;-62
2022/04/24 05:18:12;;;;;;;5.90;5.70;;;;;;;11.85;100.00;100314.84;5052399;28;20408;-61
2022/04/24 05:20:38;;;;;;;6.35;6.05;;;;;;;11.84;100.00;100318.50;5051599;28;20032;-62
2022/04/24 05:23:05;;;;;;;6.40;6.10;;;;;;;11.99;100.00;100307.00;5051439;28;20051;-62
2022/04/24 05:25:31;;;;;;;6.00;5.80;;;;;;;11.98;100.00;100321.31;5052363;28;20112;-62
2022/04/24 05:27:57;;;;;;;6.50;6.20;;;;;;;12.02;100.00;100323.38;5042933;28;20159;-62
2022/04/24 05:30:23;;;;;;;6.30;6.00;;;;;;;12.09;100.00;100318.97;5049530;28;20098;-62
2022/04/24 05:32:50;;;;;;;6.50;6.20;;;;;;;12.15;100.00;100320.03;5055996;28;20021;-63
2022/04/24 05:35:16;;;;;;;6.00;5.80;;;;;;;12.26;100.00;100324.84;5043874;28;20024;-62
2022/04/24 05:37:45;;;;;;;6.05;5.85;;;;;;;12.03;100.00;100329.53;5052133;28;20020;-62
2022/04/24 05:40:11;;;;;;;5.90;5.70;;;;;;;12.18;100.00;100325.78;5051298;28;20039;-62
2022/04/24 05:42:46;;;;;;;6.30;6.00;;;;;;;12.29;100.00;100332.44;5052257;28;20059;-62
2022/04/24 05:45:14;;;;;;;5.90;5.70;;;;;;;12.60;100.00;100324.13;5052230;28;20031;-63
2022/04/24 05:47:42;;;;;;;6.10;5.90;;;;;;;12.38;100.00;100320.66;5049601;28;20562;-62
2022/04/24 05:50:08;;;;;;;6.50;6.20;;;;;;;12.71;100.00;100312.13;5050819;28;20021;-62
2022/04/24 05:52:33;;;;;;;5.95;5.75;;;;;;;12.98;100.00;100315.78;5051861;28;20021;-62
2022/04/24 05:54:59;;;;;;;6.47;6.18;;;;;;;13.47;98.35;100321.00;5051702;28;20021;-62
2022/04/24 05:57:24;;;;;;;6.68;6.38;;;;;;;14.35;93.99;100331.69;5050585;28;20052;-62
2022/04/24 05:59:50;;;;;;;6.00;5.80;;;;;;;14.80;90.45;100326.59;5052310;28;20108;-62
2022/04/24 06:02:15;;;;;;;6.50;6.20;;;;;;;14.59;89.41;100316.94;5043648;28;20512;-61
2022/04/24 06:04:40;;;;;;;6.40;6.10;;;;;;;15.03;87.15;100318.94;5037778;28;20059;-64
2022/04/24 06:07:06;;;;;;;6.50;6.20;;;;;;;15.41;84.59;100324.38;5051863;28;20025;-63
2022/04/24 06:09:31;;;;;;;6.43;6.13;;;;;;;17.27;77.63;100317.72;5050369;28;20032;-62
2022/04/24 06:12:00;;;;;;;6.57;6.28;;;;;;;19.38;65.76;100327.09;5051499;28;20104;-62
2022/04/24 06:14:26;;;;;;;6.70;6.40;;;;;;;22.19;57.37;100332.28;5050591;28;20399;-62
2022/04/24 06:16:52;;;;;;;6.50;6.20;;;;;;;22.18;54.01;100325.22;5046380;28;20031;-62
2022/04/24 06:19:18;;;;;;;6.70;6.40;;;;;;;22.27;55.14;100329.91;5051478;28;20017;-62
2022/04/24 06:21:43;;;;;;;7.00;6.70;;;;;;;23.78;48.18;100326.78;5045945;28;20033;-62
2022/04/24 06:24:09;;;;;;;6.75;6.45;;;;;;;20.29;55.20;100321.84;5045439;28;20025;-62
2022/04/24 06:26:34;;;;;;;6.63;6.32;;;;;;;21.89;51.12;100338.16;5051667;28;20029;-62
2022/04/24 06:28:59;;;;;;;6.65;6.35;;;;;;;23.66;46.48;100337.88;5051197;28;20043;-62
2022/04/24 06:31:25;;;;;;;6.75;6.45;;;;;;;25.15;41.38;100337.69;5048823;28;20041;-62
2022/04/24 06:33:50;;;;;;;7.00;6.70;;;;;;;26.27;37.82;100348.00;5057736;28;20032;-61
2022/04/24 06:36:16;;;;;;;7.00;6.70;;;;;;;26.85;36.67;100348.09;5051040;28;20025;-63
2022/04/24 06:38:41;;;;;;;7.00;6.70;;;;;;;27.03;35.54;100343.00;5051639;28;20021;-63
2022/04/24 06:41:07;;;;;;;7.00;6.70;;;;;;;27.53;34.63;100338.91;5050987;28;20415;-62
2022/04/24 06:43:32;;;;;;;7.00;6.70;;;;;;;28.68;32.47;100344.88;5050324;28;20044;-62
2022/04/24 06:45:58;;;;;;;7.30;7.00;;;;;;;27.80;32.96;100347.31;5050161;28;20457;-61
2022/04/24 06:48:23;;;;;;;6.95;6.65;;;;;;;25.93;36.57;100347.97;5045313;28;20026;-61
2022/04/24 06:50:49;;;;;;;7.05;6.75;;;;;;;24.11;39.02;100344.47;5043768;28;20093;-60
2022/04/24 06:53:20;;;;;;;6.75;6.45;;;;;;;26.06;36.31;100338.38;5051143;28;20064;-62
2022/04/24 06:55:47;;;;;;;6.88;6.57;;;;;;;25.83;36.29;100335.25;5044407;28;20034;-64
2022/04/24 06:58:14;;;;;;;7.00;6.70;;;;;;;25.59;37.62;100336.97;5044844;28;20045;-62
2022/04/24 07:00:42;;;;;;;7.00;6.70;;;;;;;26.46;35.50;100340.00;5049434;28;20041;-62
2022/04/24 07:03:21;;;;;;;7.00;6.70;;;;;;;27.21;33.37;100343.13;5050827;28;20039;-62
2022/04/24 07:05:48;;;;;;;6.90;6.60;;;;;;;25.01;37.07;100329.28;5050001;28;20113;-61
2022/04/24 07:08:14;;;;;;;6.90;6.60;;;;;;;26.01;35.82;100336.50;5050933;28;20502;-62
2022/04/24 07:10:39;;;;;;;6.90;6.60;;;;;;;25.59;36.18;100331.53;5051322;28;20107;-62
2022/04/24 07:13:06;;;;;;;7.00;6.70;;;;;;;25.23;36.91;100337.13;5048345;28;20025;-62
2022/04/24 07:15:35;;;;;;;6.95;6.65;;;;;;;24.39;38.34;100330.44;5052527;28;20025;-61
2022/04/24 07:18:01;;;;;;;7.00;6.70;;;;;;;22.56;41.79;100324.22;5054991;28;20450;-63
2022/04/24 07:20:29;;;;;;;6.90;6.60;;;;;;;23.04;41.17;100319.66;5054465;28;20127;-63
2022/04/24 07:23:01;;;;;;;7.03;6.72;;;;;;;22.08;44.09;100325.94;5053347;28;20502;-62
2022/04/24 07:25:28;;;;;;;6.85;6.55;;;;;;;23.57;40.58;100323.97;5047510;28;20025;-62
2022/04/24 07:27:54;;;;;;;6.90;6.60;;;;;;;23.32;41.16;100330.09;5035413;28;20030;-63
2022/04/24 07:30:21;;;;;;;6.90;6.60;;;;;;;24.85;38.39;100338.53;5051361;28;20035;-61
2022/04/24 07:32:49;;;;;;;6.78;6.47;;;;;;;23.09;41.74;100331.34;5057368;28;20039;-62
2022/04/24 07:35:17;;;;;;;7.20;6.90;;;;;;;22.06;44.01;100344.25;5054268;28;20025;-62
2022/04/24 07:37:43;;;;;;;7.10;6.80;;;;;;;25.56;37.89;100340.22;5049683;28;20103;-63
2022/04/24 07:40:11;;;;;;;7.07;6.78;;;;;;;26.15;36.13;100350.28;5050483;28;20392;-63
2022/04/24 07:42:57;;;;;;;7.15;6.85;;;;;;;25.56;36.40;100351.09;5048279;28;20052;-62
2022/04/24 07:45:29;;;;;;;7.10;6.80;;;;;;;26.56;35.17;100348.09;5054313;28;20484;-62
2022/04/24 07:47:56;;;;;;;7.05;6.75;;;;;;;26.04;35.90;100348.72;5053111;28;20052;-62
2022/04/24 07:50:24;;;;;;;7.00;6.70;;;;;;;23.83;39.47;100338.44;5042606;28;20021;-61
2022/04/24 07:52:52;;;;;;;6.88;6.57;;;;;;;25.03;37.44;100339.84;5054354;28;20024;-63
2022/04/24 07:55:22;;;;;;;6.88;6.57;;;;;;;25.04;37.92;100341.50;5049046;28;20369;-62
2022/04/24 07:57:49;;;;;;;6.90;6.60;;;;;;;26.56;35.26;100348.09;5053987;28;20048;-61
2022/04/24 08:00:16;;;;;;;6.88;6.57;;;;;;;26.07;36.70;100339.97;5054066;28;20544;-61
2022/04/24 08:03:19;;;;;;;7.20;6.90;;;;;;;26.76;34.98;100343.56;5053772;28;20028;-63
2022/04/24 08:05:50;;;;;;;6.95;6.65;;;;;;;26.27;35.28;100339.84;5045338;28;20037;-62
2022/04/24 08:08:23;;;;;;;6.80;6.50;;;;;;;23.28;41.18;100326.31;5034579;28;20416;-62
2022/04/24 08:10:56;;;;;;;7.20;6.90;;;;;;;23.08;42.41;100331.63;5053966;28;20021;-62
2022/04/24 08:13:22;;;;;;;6.82;6.53;;;;;;;24.36;40.41;100330.16;5050676;28;20028;-63
2022/04/24 08:15:49;;;;;;;6.70;6.40;;;;;;;23.73;41.11;100316.75;5053543;28;20029;-62
2022/04/24 08:18:15;;;;;;;7.07;6.78;;;;;;;24.30;39.92;100326.59;5053414;28;20484;-62
2022/04/24 08:20:42;;;;;;;7.00;6.70;;;;;;;25.01;38.82;100329.28;5054022;28;20029;-61
2022/04/24 08:23:09;;;;;;;7.10;6.80;;;;;;;24.50;39.50;100323.91;5053387;28;20024;-62
2022/04/24 08:25:35;;;;;;;7.07;6.78;;;;;;;25.25;37.76;100320.53;5052661;28;20440;-62
2022/04/24 08:28:04;;;;;;;7.20;6.90;;;;;;;24.68;38.15;100319.84;5053069;28;20044;-62
2022/04/24 08:30:30;;;;;;;6.90;6.60;;;;;;;24.54;39.31;100321.50;5051244;28;20025;-63
2022/04/24 08:32:56;;;;;;;7.25;6.95;;;;;;;25.22;37.02;100321.91;5053241;28;20477;-62
2022/04/24 08:35:22;;;;;;;6.72;6.43;;;;;;;23.39;41.18;100311.72;5049569;28;20558;-62
2022/04/24 08:37:48;;;;;;;6.72;6.43;;;;;;;23.03;41.98;100320.75;5051630;28;20032;-62
2022/04/24 08:40:15;;;;;;;7.00;6.70;;;;;;;24.72;37.90;100325.53;5053173;28;20028;-63
2022/04/24 08:42:41;;;;;;;6.70;6.40;;;;;;;23.26;40.92;100317.63;5052984;28;20037;-63
2022/04/24 08:45:11;;;;;;;7.00;6.70;;;;;;;24.04;39.98;100311.41;5052837;28;20035;-62
2022/04/24 08:47:37;;;;;;;7.00;6.70;;;;;;;22.46;43.21;100319.50;5052233;28;20381;-63
2022/04/24 08:50:04;;;;;;;7.10;6.80;;;;;;;22.38;42.42;100302.97;5038242;28;20025;-62
2022/04/24 08:52:30;;;;;;;6.85;6.55;;;;;;;23.78;40.42;100295.09;5045393;28;20509;-63
2022/04/24 08:54:58;;;;;;;6.90;6.60;;;;;;;21.58;45.71;100299.19;5052950;28;20091;-62
2022/04/24 08:57:26;;;;;;;6.97;6.68;;;;;;;21.55;45.10;100297.00;5052981;28;20045;-61
2022/04/24 08:59:55;;;;;;;6.97;6.68;;;;;;;22.08;43.90;100304.31;5052793;28;20028;-63
2022/04/24 09:02:21;;;;;;;7.03;6.72;;;;;;;22.21;43.51;100306.63;5052710;28;20029;-63
2022/04/24 09:04:47;;;;;;;7.28;6.97;;;;;;;22.12;43.71;100308.16;5040388;28;20117;-63
2022/04/24 09:07:17;;;;;;;7.22;6.93;;;;;;;22.75;42.92;100311.06;5052551;28;20103;-62
2022/04/24 09:09:53;;;;;;;7.10;6.80;;;;;;;23.55;41.46;100306.38;5052604;28;20029;-62
2022/04/24 09:12:26;;;;;;;6.90;6.60;;;;;;;22.00;43.16;100307.47;5052806;28;20029;-63
2022/04/24 09:14:53;;;;;;;6.70;6.40;;;;;;;23.01;41.58;100306.69;5052434;28;20052;-62
2022/04/24 09:17:20;;;;;;;6.50;6.20;;;;;;;21.36;46.47;100299.19;5052542;28;20096;-63
2022/04/24 09:19:46;;;;;;;6.75;6.45;;;;;;;22.38;44.39;100301.06;5051295;28;20031;-63
2022/04/24 09:22:13;;;;;;;6.80;6.50;;;;;;;22.41;43.87;100292.47;5052776;28;20035;-62
2022/04/24 09:24:56;;;;;;;6.80;6.50;;;;;;;23.89;40.79;100295.94;5039213;28;20128;-62
2022/04/24 09:27:32;;;;;;;6.60;6.30;;;;;;;23.29;41.75;100287.34;5052784;28;20079;-63
2022/04/24 09:30:01;;;;;;;7.00;6.70;;;;;;;23.52;41.28;100299.59;5052669;28;20021;-62
2022/04/24 09:32:28;;;;;;;6.90;6.60;;;;;;;23.75;40.91;100297.53;5054236;28;20418;-62
2022/04/24 09:34:55;;;;;;;6.70;6.40;;;;;;;23.02;41.32;100300.19;5052353;28;20445;-65
2022/04/24 09:37:21;;;;;;;6.63;6.32;;;;;;;22.87;41.60;100295.50;5051185;28;20048;-62
2022/04/24 09:39:48;;;;;;;6.72;6.43;;;;;;;22.08;43.12;100307.03;5051118;28;20021;-63
2022/04/24 09:42:14;;;;;;;6.78;6.47;;;;;;;23.15;40.63;100305.94;5047827;28;20037;-63
2022/04/24 09:44:41;;;;;;;6.85;6.55;;;;;;;21.96;43.92;100298.22;5040088;28;20025;-63
2022/04/24 09:47:07;;;;;;;6.97;6.68;;;;;;;22.15;43.37;100293.31;5047210;28;20021;-63
2022/04/24 09:49:40;;;;;;;6.72;6.43;;;;;;;22.92;41.26;100287.44;5038073;28;20091;-62
2022/04/24 09:52:15;;;;;;;6.78;6.47;;;;;;;22.65;40.99;100292.09;5052231;28;20086;-63
2022/04/24 09:54:46;;;;;;;6.65;6.35;;;;;;;23.37;39.91;100294.13;5050819;28;20036;-64
2022/04/24 09:57:14;;;;;;;6.65;6.35;;;;;;;22.24;41.86;100292.56;5051674;28;20436;-64
2022/04/24 09:59:41;;;;;;;6.72;6.43;;;;;;;21.76;42.53;100291.56;5052143;28;20017;-62
2022/04/24 10:02:08;;;;;;;6.72;6.43;;;;;;;21.22;44.13;100285.22;5048205;28;20028;-63
2022/04/24 10:04:36;;;;;;;6.80;6.50;;;;;;;21.71;43.53;100280.72;5051724;28;20032;-62
2022/04/24 10:07:07;;;;;;;6.80;6.50;;;;;;;21.80;43.81;100281.88;5051102;28;20040;-63
2022/04/24 10:09:40;;;;;;;6.88;6.57;;;;;;;20.79;45.83;100273.34;5051881;28;20107;-63
2022/04/24 10:12:08;;;;;;;6.80;6.50;;;;;;;21.54;43.23;100261.09;5050595;28;20036;-63
2022/04/24 10:14:40;;;;;;;6.68;6.38;;;;;;;21.37;42.90;100265.75;5051873;28;20016;-62
2022/04/24 10:17:18;;;;;;;6.75;6.45;;;;;;;21.31;43.54;100267.59;5051918;28;20090;-62
2022/04/24 10:19:57;;;;;;;6.60;6.30;;;;;;;21.83;42.05;100264.38;5045750;28;21411;-63
2022/04/24 10:22:34;;;;;;;6.60;6.30;;;;;;;20.33;46.82;100258.31;5047961;28;20041;-63
2022/04/24 10:25:01;;;;;;;6.65;6.35;;;;;;;20.92;45.49;100251.41;5051768;28;20029;-63
2022/04/24 10:27:47;;;;;;;6.80;6.50;;;;;;;20.30;46.44;100253.44;5051438;28;20040;-62
2022/04/24 10:30:23;;;;;;;6.82;6.53;;;;;;;20.72;44.76;100255.72;5040331;28;20025;-63
2022/04/24 10:33:10;;;;;;;6.70;6.40;;;;;;;21.82;41.74;100249.25;5046569;28;20029;-62
2022/04/24 10:35:52;;;;;;;6.80;6.50;;;;;;;21.73;42.81;100248.84;5045550;28;20116;-63
2022/04/24 10:38:23;;;;;;;6.57;6.28;;;;;;;21.75;42.59;100262.94;5050886;28;20039;-64
2022/04/24 10:40:58;;;;;;;6.93;6.63;;;;;;;21.45;42.55;100255.34;5050910;28;20037;-62
2022/04/24 10:43:24;;;;;;;6.55;6.25;;;;;;;21.25;42.72;100257.75;5051268;28;20419;-62
2022/04/24 10:45:51;;;;;;;6.78;6.47;;;;;;;20.98;42.42;100252.28;5050224;28;20104;-62
2022/04/24 10:48:17;;;;;;;6.43;6.13;;;;;;;21.16;42.51;100249.31;5051490;28;20380;-62
2022/04/24 10:50:50;;;;;;;6.70;6.40;;;;;;;21.17;43.01;100256.31;5053386;28;20538;-63
2022/04/24 10:53:16;;;;;;;6.60;6.30;;;;;;;21.15;42.88;100254.91;5055271;28;20025;-64
2022/04/24 10:55:42;;;;;;;6.57;6.28;;;;;;;21.49;41.18;100256.44;5055348;28;20440;-63
2022/04/24 10:58:10;;;;;;;6.70;6.40;;;;;;;21.78;40.95;100248.91;5049879;28;20077;-62
2022/04/24 11:00:37;;;;;;;6.70;6.40;;;;;;;21.50;41.44;100252.66;5055120;28;20023;-63
2022/04/24 11:03:14;;;;;;;6.70;6.40;;;;;;;21.53;41.42;100243.28;5054349;28;20033;-63
2022/04/24 11:05:46;;;;;;;6.60;6.30;;;;;;;21.73;41.18;100248.03;5049788;28;20082;-63
2022/04/24 11:08:20;;;;;;;6.50;6.20;;;;;;;21.35;41.79;100251.69;5055108;28;20067;-62
2022/04/24 11:10:48;;;;;;;6.55;6.25;;;;;;;21.03;42.97;100238.06;5054651;28;20509;-62
2022/04/24 11:13:18;;;;;;;6.50;6.20;;;;;;;20.95;43.60;100236.63;5055058;28;20044;-62
2022/04/24 11:15:47;;;;;;;6.47;6.18;;;;;;;21.46;42.27;100235.38;5055280;28;20492;-63
2022/04/24 11:18:26;;;;;;;6.47;6.18;;;;;;;21.65;42.55;100243.09;5053370;28;20382;-63
2022/04/24 11:21:01;;;;;;;6.78;6.47;;;;;;;21.71;42.29;100237.50;5046301;28;20021;-63
2022/04/24 11:23:38;;;;;;;6.70;6.40;;;;;;;21.31;42.97;100234.41;5054876;28;20089;-61